Time;durP1;ratioP1;P1;durP2;ratioP2;P2;SDS_P1;SDS_P2;PMS_P1;PMS_P2;Temp;Humidity;BMP_temperature;BMP_pressure;BME280_temperature;BME280_humidity;BME280_pressure;Samples;Min_cycle;Max_cycle;Signal;HPM_P1;HPM_P2
2022/08/21 00:00:10;;;;;;;1.80;1.70;;;15.80;99.90;;;;;;5033331;28;20198;-53
2022/08/21 00:02:38;;;;;;;1.70;1.70;;;15.80;99.90;;;;;;5028665;28;20715;-53
2022/08/21 00:05:07;;;;;;;1.70;1.40;;;15.70;99.90;;;;;;5033394;28;20245;-53
2022/08/21 00:07:34;;;;;;;1.60;1.50;;;15.70;99.90;;;;;;5033994;28;20202;-53
2022/08/21 00:10:01;;;;;;;1.30;1.30;;;15.70;99.90;;;;;;5033636;28;20206;-53
2022/08/21 00:12:28;;;;;;;3.60;1.20;;;15.70;99.90;;;;;;5033344;28;20237;-53
2022/08/21 00:14:55;;;;;;;2.00;1.50;;;15.70;99.90;;;;;;5030445;28;20258;-53
2022/08/21 00:17:22;;;;;;;1.90;1.37;;;15.80;99.90;;;;;;5033435;28;20272;-53
2022/08/21 00:19:49;;;;;;;1.03;1.03;;;15.80;99.90;;;;;;5030426;28;20198;-53
2022/08/21 00:22:18;;;;;;;1.63;1.27;;;15.80;99.90;;;;;;5033569;28;20207;-53
2022/08/21 00:24:45;;;;;;;1.10;1.10;;;15.70;99.90;;;;;;5032187;28;20715;-53
2022/08/21 00:27:12;;;;;;;1.90;1.90;;;15.60;99.90;;;;;;5026657;28;20628;-53
2022/08/21 00:29:39;;;;;;;1.97;1.90;;;15.60;99.90;;;;;;5027317;28;20202;-53
2022/08/21 00:32:06;;;;;;;1.50;1.50;;;15.50;99.90;;;;;;5033218;28;20710;-53
2022/08/21 00:34:33;;;;;;;2.37;2.27;;;15.50;99.90;;;;;;5033021;28;20206;-53
2022/08/21 00:37:00;;;;;;;1.77;1.77;;;15.40;99.90;;;;;;5033002;28;20268;-53
2022/08/21 00:39:28;;;;;;;2.20;2.10;;;15.40;99.90;;;;;;5022056;28;20687;-53
2022/08/21 00:41:55;;;;;;;1.83;1.83;;;15.40;99.90;;;;;;5013961;28;20199;-53
2022/08/21 00:44:22;;;;;;;2.33;2.23;;;15.40;99.90;;;;;;5021667;28;20199;-53
2022/08/21 00:46:49;;;;;;;1.50;1.50;;;15.50;99.90;;;;;;5031753;28;20199;-53
2022/08/21 00:49:17;;;;;;;1.87;1.87;;;15.50;99.90;;;;;;5030265;28;20245;-53
2022/08/21 00:51:49;;;;;;;1.93;1.90;;;15.50;99.90;;;;;;5023897;28;20207;-53
2022/08/21 00:54:18;;;;;;;2.17;2.17;;;15.50;99.90;;;;;;5032845;28;20206;-53
2022/08/21 00:56:48;;;;;;;2.40;2.30;;;15.50;99.90;;;;;;5024393;28;20654;-53
2022/08/21 00:59:17;;;;;;;2.03;2.03;;;15.50;99.90;;;;;;5031995;28;20233;-53
2022/08/21 01:01:45;;;;;;;2.87;2.60;;;15.50;99.90;;;;;;5032678;28;20253;-53
2022/08/21 01:04:12;;;;;;;3.97;2.80;;;15.40;99.90;;;;;;5030522;28;20207;-53
2022/08/21 01:06:40;;;;;;;2.20;2.10;;;15.50;99.90;;;;;;5023456;28;20285;-53
2022/08/21 01:09:07;;;;;;;2.67;2.57;;;15.50;99.90;;;;;;5032660;28;20199;-53
2022/08/21 01:11:34;;;;;;;2.87;2.77;;;15.40;99.90;;;;;;5031598;28;20253;-53
2022/08/21 01:14:03;;;;;;;2.90;2.80;;;15.50;99.90;;;;;;5031049;28;20230;-53
2022/08/21 01:16:30;;;;;;;3.07;2.97;;;15.40;99.90;;;;;;5027549;28;20628;-53
2022/08/21 01:18:57;;;;;;;3.13;2.97;;;15.40;99.90;;;;;;5024801;28;20258;-53
2022/08/21 01:21:28;;;;;;;3.03;2.93;;;15.40;99.90;;;;;;5021273;28;20677;-53
2022/08/21 01:23:56;;;;;;;3.50;2.57;;;15.40;99.90;;;;;;5031209;28;20233;-53
2022/08/21 01:26:26;;;;;;;3.60;2.93;;;15.40;99.90;;;;;;5027306;28;20718;-53
2022/08/21 01:28:58;;;;;;;2.50;2.40;;;15.40;99.90;;;;;;5030187;28;20675;-53
2022/08/21 01:31:27;;;;;;;2.60;2.40;;;15.30;99.90;;;;;;5032068;28;20253;-53
2022/08/21 01:33:56;;;;;;;2.50;2.40;;;15.30;99.90;;;;;;5031894;28;20619;-53
2022/08/21 01:36:25;;;;;;;2.23;2.03;;;15.30;99.90;;;;;;5032079;28;20226;-53
2022/08/21 01:38:52;;;;;;;2.00;2.00;;;15.30;99.90;;;;;;5023265;28;20226;-53
2022/08/21 01:41:19;;;;;;;2.07;1.97;;;15.20;99.90;;;;;;5027991;28;20202;-53
2022/08/21 01:43:46;;;;;;;5.60;2.30;;;15.20;99.90;;;;;;5031506;28;20195;-53
2022/08/21 01:46:14;;;;;;;2.30;2.20;;;15.20;99.90;;;;;;5031864;28;20241;-53
2022/08/21 01:48:41;;;;;;;2.00;2.00;;;15.10;99.90;;;;;;5032098;28;20202;-53
2022/08/21 01:51:09;;;;;;;2.10;1.90;;;15.20;99.90;;;;;;5030302;28;20202;-53
2022/08/21 01:53:38;;;;;;;2.00;2.00;;;15.20;99.90;;;;;;5028703;28;20195;-53
2022/08/21 01:56:07;;;;;;;2.07;1.87;;;15.20;99.90;;;;;;5026792;28;20237;-53
2022/08/21 01:58:34;;;;;;;1.83;1.80;;;15.20;99.90;;;;;;5025886;28;20289;-53
2022/08/21 02:01:02;;;;;;;1.93;1.93;;;15.20;99.90;;;;;;5015352;28;20202;-53
2022/08/21 02:03:29;;;;;;;2.60;2.50;;;15.10;99.90;;;;;;5017742;28;20191;-54
2022/08/21 02:05:56;;;;;;;1.93;1.93;;;15.10;99.90;;;;;;5029965;28;20227;-53
2022/08/21 02:08:23;;;;;;;2.03;1.93;;;15.10;99.90;;;;;;5024840;28;20222;-54
2022/08/21 02:10:52;;;;;;;4.43;1.97;;;15.00;99.90;;;;;;5026274;28;20282;-53
2022/08/21 02:13:20;;;;;;;2.07;1.87;;;15.00;99.90;;;;;;5014580;28;20206;-53
2022/08/21 02:15:47;;;;;;;2.40;2.37;;;15.00;99.90;;;;;;5011956;28;20231;-53
2022/08/21 02:18:14;;;;;;;1.87;1.77;;;15.00;99.90;;;;;;5011948;28;20746;-53
2022/08/21 02:20:44;;;;;;;3.30;2.27;;;15.00;99.90;;;;;;5012036;28;20192;-53
2022/08/21 02:23:12;;;;;;;2.00;1.90;;;15.00;99.90;;;;;;5021192;28;20206;-53
2022/08/21 02:25:39;;;;;;;1.50;1.50;;;15.00;99.90;;;;;;5022049;28;20276;-53
2022/08/21 02:28:11;;;;;;;1.60;1.50;;;15.00;99.90;;;;;;5023322;28;20286;-53
2022/08/21 02:30:41;;;;;;;1.70;1.67;;;15.00;99.90;;;;;;5026748;28;20198;-53
2022/08/21 02:33:10;;;;;;;1.83;1.73;;;15.00;99.90;;;;;;5022469;28;20195;-53
2022/08/21 02:35:38;;;;;;;1.63;1.57;;;15.00;99.90;;;;;;5011761;28;20221;-53
2022/08/21 02:38:08;;;;;;;2.53;2.43;;;15.00;99.90;;;;;;5020593;28;20225;-53
2022/08/21 02:40:38;;;;;;;1.90;1.80;;;14.90;99.90;;;;;;5018867;28;20626;-53
2022/08/21 02:43:08;;;;;;;1.57;1.57;;;14.90;99.90;;;;;;5024692;28;20682;-53
2022/08/21 02:45:37;;;;;;;1.90;1.80;;;15.00;99.90;;;;;;5029701;28;20275;-53
2022/08/21 02:48:07;;;;;;;1.50;1.50;;;15.00;99.90;;;;;;5029443;28;20199;-53
2022/08/21 02:50:38;;;;;;;1.77;1.60;;;14.90;99.90;;;;;;5015929;28;20303;-53
2022/08/21 02:53:07;;;;;;;2.83;2.63;;;15.00;99.90;;;;;;5019570;28;20605;-53
2022/08/21 02:55:36;;;;;;;1.80;1.80;;;14.90;99.90;;;;;;5028145;28;20314;-53
2022/08/21 02:58:08;;;;;;;1.80;1.70;;;14.90;99.90;;;;;;5018199;28;20297;-53
2022/08/21 03:00:37;;;;;;;2.13;1.93;;;14.90;99.90;;;;;;5015701;28;20194;-53
2022/08/21 03:03:07;;;;;;;1.67;1.67;;;14.80;99.90;;;;;;5029339;28;20233;-53
2022/08/21 03:05:37;;;;;;;1.77;1.67;;;14.90;99.90;;;;;;5028762;28;20280;-53
2022/08/21 03:08:09;;;;;;;1.60;1.60;;;14.80;99.90;;;;;;5030780;28;20194;-53
2022/08/21 03:10:36;;;;;;;1.13;1.13;;;14.80;99.90;;;;;;5026285;28;20204;-53
2022/08/21 03:13:03;;;;;;;1.67;1.67;;;14.70;99.90;;;;;;5027292;28;20194;-53
2022/08/21 03:15:32;;;;;;;1.57;1.47;;;14.70;99.90;;;;;;5016620;28;20218;-53
2022/08/21 03:18:03;;;;;;;1.17;1.17;;;14.70;99.90;;;;;;5027418;28;20769;-53
2022/08/21 03:20:30;;;;;;;1.70;1.70;;;14.70;99.90;;;;;;5026083;28;20229;-53
2022/08/21 03:22:58;;;;;;;1.77;1.77;;;14.70;99.90;;;;;;5015795;28;20277;-53
2022/08/21 03:25:27;;;;;;;1.17;1.17;;;14.70;99.90;;;;;;5022455;28;20222;-53
2022/08/21 03:27:54;;;;;;;2.43;2.23;;;14.60;99.90;;;;;;5016638;28;20188;-52
2022/08/21 03:30:22;;;;;;;3.17;3.07;;;14.70;99.90;;;;;;5013886;28;20290;-53
2022/08/21 03:32:51;;;;;;;2.20;2.10;;;14.70;99.90;;;;;;5021590;28;20210;-53
2022/08/21 03:35:19;;;;;;;2.57;2.47;;;14.70;99.90;;;;;;5022513;28;20315;-53
2022/08/21 03:37:47;;;;;;;3.37;3.17;;;14.70;99.90;;;;;;5033346;28;20222;-53
2022/08/21 03:40:17;;;;;;;3.47;3.27;;;14.70;99.90;;;;;;5025877;28;20653;-53
2022/08/21 03:42:45;;;;;;;2.93;2.83;;;14.80;99.90;;;;;;5026082;28;20207;-53
2022/08/21 03:45:12;;;;;;;4.13;3.80;;;14.80;99.90;;;;;;5030811;28;20277;-53
2022/08/21 03:47:39;;;;;;;5.07;4.77;;;14.90;99.90;;;;;;5032925;28;20252;-52
2022/08/21 03:50:08;;;;;;;4.00;3.80;;;14.90;99.90;;;;;;5028989;28;20203;-53
2022/08/21 03:52:35;;;;;;;3.83;3.63;;;14.90;99.90;;;;;;5026586;28;20237;-53
2022/08/21 03:55:01;;;;;;;2.67;2.57;;;14.90;99.90;;;;;;5025169;28;20222;-53
2022/08/21 03:57:28;;;;;;;4.40;4.17;;;14.90;99.90;;;;;;5033103;28;20202;-53
2022/08/21 03:59:55;;;;;;;4.37;3.90;;;14.90;99.90;;;;;;5032290;28;20623;-53
2022/08/21 04:02:23;;;;;;;3.90;3.70;;;14.90;99.90;;;;;;5033022;28;20229;-53
2022/08/21 04:04:49;;;;;;;3.90;3.70;;;14.90;99.90;;;;;;5033499;28;20305;-53
2022/08/21 04:07:18;;;;;;;3.83;3.53;;;14.90;99.90;;;;;;5030902;28;20248;-53
2022/08/21 04:09:45;;;;;;;4.20;4.00;;;14.90;99.90;;;;;;5025830;28;20637;-53
2022/08/21 04:12:12;;;;;;;2.97;2.87;;;14.90;99.90;;;;;;5029380;28;20672;-53
2022/08/21 04:14:41;;;;;;;3.53;3.43;;;14.90;99.90;;;;;;5021271;28;20202;-53
2022/08/21 04:17:08;;;;;;;3.53;3.43;;;14.80;99.90;;;;;;5019325;28;20198;-52
2022/08/21 04:19:35;;;;;;;2.93;2.83;;;14.80;99.90;;;;;;5019989;28;20273;-53
2022/08/21 04:22:02;;;;;;;2.70;2.60;;;14.80;99.90;;;;;;5018464;28;20230;-53
2022/08/21 04:24:31;;;;;;;2.33;2.23;;;14.70;99.90;;;;;;5025959;28;20245;-53
2022/08/21 04:26:58;;;;;;;2.77;2.57;;;14.60;99.90;;;;;;5020893;28;20718;-53
2022/08/21 04:29:25;;;;;;;2.57;2.47;;;14.60;99.90;;;;;;5027467;28;20245;-53
2022/08/21 04:31:52;;;;;;;1.30;1.30;;;14.60;99.90;;;;;;5018932;28;20227;-52
2022/08/21 04:34:19;;;;;;;3.13;2.93;;;14.60;99.90;;;;;;5012437;28;20290;-53
2022/08/21 04:36:46;;;;;;;1.60;1.50;;;14.60;99.90;;;;;;5015644;28;20273;-53
2022/08/21 04:39:13;;;;;;;1.37;1.37;;;14.60;99.90;;;;;;5016798;28;20219;-53
2022/08/21 04:41:43;;;;;;;1.07;1.07;;;14.60;99.90;;;;;;5014434;28;20257;-53
2022/08/21 04:44:10;;;;;;;1.27;1.27;;;14.60;99.90;;;;;;5022005;28;20198;-53
2022/08/21 04:46:37;;;;;;;1.87;1.87;;;14.60;99.90;;;;;;5030779;28;20305;-53
2022/08/21 04:49:04;;;;;;;2.93;2.73;;;14.60;99.90;;;;;;5031292;28;20195;-53
2022/08/21 04:51:35;;;;;;;2.80;2.70;;;14.60;99.90;;;;;;5031051;28;20290;-53
2022/08/21 04:54:07;;;;;;;1.87;1.87;;;14.70;99.90;;;;;;5028637;28;21205;-53
2022/08/21 04:56:40;;;;;;;1.37;1.37;;;14.70;99.90;;;;;;5021255;28;20246;-53
2022/08/21 04:59:16;;;;;;;2.07;1.90;;;14.70;99.90;;;;;;5017321;28;20214;-53
2022/08/21 05:01:44;;;;;;;1.73;1.60;;;14.70;99.90;;;;;;5020210;28;20301;-53
2022/08/21 05:04:15;;;;;;;1.70;1.70;;;14.70;99.90;;;;;;5027788;28;20195;-53
2022/08/21 05:06:45;;;;;;;1.30;1.30;;;14.70;99.90;;;;;;5023175;28;20215;-53
2022/08/21 05:09:15;;;;;;;1.70;1.70;;;14.70;99.90;;;;;;5013909;28;20211;-53
2022/08/21 05:11:42;;;;;;;1.07;1.07;;;14.80;99.90;;;;;;5016013;28;20203;-53
2022/08/21 05:14:11;;;;;;;1.17;1.17;;;14.80;99.90;;;;;;5019183;28;20230;-53
2022/08/21 05:16:38;;;;;;;1.40;1.40;;;14.80;99.90;;;;;;5019724;28;20253;-53
2022/08/21 05:19:06;;;;;;;1.93;1.93;;;14.80;99.90;;;;;;5020624;28;20358;-53
2022/08/21 05:21:33;;;;;;;1.50;1.40;;;14.80;99.90;;;;;;5021697;28;20261;-53
2022/08/21 05:24:01;;;;;;;1.30;1.30;;;14.90;99.90;;;;;;5021533;28;20669;-53
2022/08/21 05:26:29;;;;;;;2.03;1.50;;;14.90;99.90;;;;;;5028863;28;20230;-53
2022/08/21 05:28:56;;;;;;;1.70;1.33;;;15.00;99.90;;;;;;5015429;28;20187;-53
2022/08/21 05:31:25;;;;;;;1.37;1.37;;;15.00;99.90;;;;;;5019747;28;20256;-53
2022/08/21 05:33:52;;;;;;;1.23;1.23;;;15.10;99.90;;;;;;5028653;28;20198;-53
2022/08/21 05:36:20;;;;;;;0.97;0.97;;;15.10;99.90;;;;;;5029623;28;20249;-53
2022/08/21 05:38:47;;;;;;;1.80;1.70;;;15.20;99.90;;;;;;5031581;28;20221;-52
2022/08/21 05:41:14;;;;;;;1.37;1.37;;;15.20;99.90;;;;;;5015675;28;20213;-53
2022/08/21 05:43:41;;;;;;;1.17;1.17;;;15.20;99.90;;;;;;5019751;28;20276;-53
2022/08/21 05:46:09;;;;;;;3.33;1.90;;;15.30;99.90;;;;;;5025609;28;20219;-53
2022/08/21 05:48:37;;;;;;;1.77;1.67;;;15.30;99.90;;;;;;5014881;28;20194;-53
2022/08/21 05:51:07;;;;;;;1.53;1.33;;;15.40;99.90;;;;;;5017135;28;20203;-53
2022/08/21 05:53:34;;;;;;;1.70;1.70;;;15.40;99.90;;;;;;5026711;28;20202;-53
2022/08/21 05:56:03;;;;;;;1.40;1.40;;;15.50;99.90;;;;;;5030390;28;20222;-53
2022/08/21 05:58:31;;;;;;;1.17;1.10;;;15.60;99.90;;;;;;5023396;28;20273;-53
2022/08/21 06:00:58;;;;;;;2.00;1.90;;;15.60;99.90;;;;;;5028553;28;20207;-53
2022/08/21 06:03:27;;;;;;;1.80;1.80;;;15.70;99.90;;;;;;5031307;28;20663;-53
2022/08/21 06:05:56;;;;;;;2.20;1.63;;;15.90;99.90;;;;;;5025200;28;20288;-53
2022/08/21 06:08:24;;;;;;;1.07;1.07;;;15.90;99.90;;;;;;5030875;28;20224;-53
2022/08/21 06:10:53;;;;;;;1.20;1.20;;;16.10;99.90;;;;;;5021000;28;20238;-53
2022/08/21 06:13:21;;;;;;;1.50;1.33;;;16.20;99.90;;;;;;5023103;28;20264;-53
2022/08/21 06:15:48;;;;;;;1.40;1.40;;;16.40;99.90;;;;;;5026529;28;20281;-53
2022/08/21 06:18:15;;;;;;;1.17;1.13;;;17.60;99.90;;;;;;5020649;28;20221;-53
2022/08/21 06:20:43;;;;;;;1.33;0.97;;;19.00;99.90;;;;;;5030032;28;20288;-53
2022/08/21 06:23:11;;;;;;;0.83;0.83;;;20.40;99.90;;;;;;5021789;28;20230;-53
2022/08/21 06:25:38;;;;;;;0.80;0.80;;;21.50;99.90;;;;;;5028859;28;20628;-53
2022/08/21 06:28:07;;;;;;;4.30;0.70;;;22.30;99.90;;;;;;5026104;28;20562;-53
2022/08/21 06:30:34;;;;;;;0.70;0.70;;;22.80;99.90;;;;;;5025820;28;20248;-53
2022/08/21 06:33:02;;;;;;;0.70;0.70;;;23.60;99.90;;;;;;5025293;28;20507;-52
2022/08/21 06:35:29;;;;;;;0.80;0.80;;;24.30;99.90;;;;;;5029050;28;20231;-53
2022/08/21 06:37:57;;;;;;;4.03;0.70;;;24.80;99.90;;;;;;5029258;28;20714;-53
2022/08/21 06:40:26;;;;;;;0.80;0.80;;;25.30;99.90;;;;;;5022751;28;20223;-53
2022/08/21 06:42:53;;;;;;;0.60;0.40;;;25.80;99.90;;;;;;5022908;28;20249;-53
2022/08/21 06:45:20;;;;;;;1.80;0.50;;;26.30;99.90;;;;;;5033336;28;20219;-53
2022/08/21 06:47:47;;;;;;;0.30;0.30;;;26.40;99.90;;;;;;5031745;28;20202;-53
2022/08/21 06:50:14;;;;;;;0.37;0.37;;;26.50;99.90;;;;;;5020973;28;20202;-53
2022/08/21 06:52:41;;;;;;;0.43;0.43;;;26.70;99.90;;;;;;5016368;28;20199;-53
2022/08/21 06:55:10;;;;;;;0.77;0.43;;;26.80;99.90;;;;;;5014675;28;20211;-53
2022/08/21 06:57:39;;;;;;;0.32;0.32;;;27.20;99.90;;;;;;5013498;28;20226;-53
2022/08/21 07:00:09;;;;;;;0.52;0.52;;;27.50;99.90;;;;;;5023997;28;20261;-53
2022/08/21 07:02:36;;;;;;;0.40;0.40;;;27.80;99.90;;;;;;5014148;28;20206;-53
2022/08/21 07:05:03;;;;;;;0.30;0.30;;;28.20;99.90;;;;;;5014871;28;20313;-53
2022/08/21 07:07:30;;;;;;;0.50;0.50;;;28.30;99.90;;;;;;5025873;28;20255;-53
2022/08/21 07:09:58;;;;;;;1.25;0.40;;;28.60;99.90;;;;;;5032613;28;20241;-53
2022/08/21 07:12:25;;;;;;;2.65;0.50;;;28.00;99.90;;;;;;5032905;28;20301;-53
2022/08/21 07:14:54;;;;;;;0.38;0.38;;;28.50;99.90;;;;;;5031876;28;20317;-53
2022/08/21 07:17:21;;;;;;;0.40;0.40;;;28.80;99.90;;;;;;5027626;28;20286;-53
2022/08/21 07:19:47;;;;;;;0.40;0.40;;;28.90;99.90;;;;;;5013894;28;20258;-53
2022/08/21 07:22:19;;;;;;;1.35;0.70;;;28.70;99.90;;;;;;5019753;28;20199;-53
2022/08/21 07:24:46;;;;;;;0.73;0.50;;;28.80;99.90;;;;;;5020286;28;20201;-53
2022/08/21 07:27:13;;;;;;;0.73;0.50;;;29.30;99.90;;;;;;5015791;28;20743;-54
2022/08/21 07:29:40;;;;;;;1.10;0.60;;;29.70;99.90;;;;;;5033113;28;20191;-53
2022/08/21 07:32:08;;;;;;;0.88;0.88;;;29.70;99.90;;;;;;5032665;28;20195;-53
2022/08/21 07:34:35;;;;;;;0.60;0.60;;;29.80;99.90;;;;;;5032028;28;20272;-53
2022/08/21 07:37:02;;;;;;;0.77;0.77;;;29.70;99.90;;;;;;5020061;28;20230;-54
2022/08/21 07:39:30;;;;;;;2.13;0.80;;;29.90;99.90;;;;;;5024235;28;20211;-54
2022/08/21 07:41:57;;;;;;;0.95;0.77;;;30.40;99.90;;;;;;5032101;28;20328;-53
2022/08/21 07:44:25;;;;;;;2.42;0.77;;;30.40;99.90;;;;;;5017377;28;20195;-53
2022/08/21 07:46:52;;;;;;;0.60;0.60;;;30.60;99.90;;;;;;5013710;28;20265;-53
2022/08/21 07:49:20;;;;;;;0.57;0.43;;;30.30;99.90;;;;;;5013248;28;20662;-53
2022/08/21 07:51:47;;;;;;;0.40;0.40;;;30.10;99.90;;;;;;5024763;28;20265;-54
2022/08/21 07:54:14;;;;;;;0.70;0.47;;;30.10;99.90;;;;;;5017027;28;20199;-53
2022/08/21 07:56:41;;;;;;;0.75;0.30;;;30.60;99.90;;;;;;5013492;28;20565;-53
2022/08/21 07:59:08;;;;;;;0.75;0.30;;;31.10;99.90;;;;;;5013015;28;20221;-53
2022/08/21 08:01:35;;;;;;;0.40;0.40;;;31.10;99.90;;;;;;5013204;28;20677;-54
2022/08/21 08:04:03;;;;;;;0.30;0.30;;;31.30;99.90;;;;;;5031490;28;20198;-54
2022/08/21 08:06:32;;;;;;;0.50;0.50;;;30.80;99.90;;;;;;5026167;28;20218;-53
2022/08/21 08:09:02;;;;;;;0.43;0.43;;;30.50;99.90;;;;;;5022276;28;20665;-53
2022/08/21 08:11:30;;;;;;;0.50;0.50;;;30.80;99.90;;;;;;5013561;28;20640;-54
2022/08/21 08:13:59;;;;;;;0.40;0.40;;;30.70;99.90;;;;;;5019638;28;20814;-53
2022/08/21 08:16:27;;;;;;;0.47;0.47;;;30.80;99.90;;;;;;5027134;28;20728;-54
2022/08/21 08:18:55;;;;;;;0.45;0.40;;;30.50;99.90;;;;;;5027104;28;20209;-53
2022/08/21 08:21:22;;;;;;;0.52;0.30;;;30.40;99.90;;;;;;5025675;28;20194;-53
2022/08/21 08:23:51;;;;;;;0.30;0.30;;;30.90;99.90;;;;;;5029853;28;20206;-53
2022/08/21 08:26:19;;;;;;;1.23;0.50;;;31.10;99.90;;;;;;5031775;28;20265;-53
2022/08/21 08:28:47;;;;;;;0.20;0.20;;;31.20;99.90;;;;;;5033345;28;20260;-54
2022/08/21 08:31:15;;;;;;;1.85;0.82;;;31.10;99.90;;;;;;5032411;28;20225;-53
2022/08/21 08:33:43;;;;;;;0.30;0.30;;;31.20;99.90;;;;;;5032785;28;20635;-53
2022/08/21 08:36:15;;;;;;;0.30;0.30;;;31.20;99.90;;;;;;5033093;28;20226;-53
2022/08/21 08:38:42;;;;;;;2.30;0.40;;;31.60;99.90;;;;;;5032937;28;20556;-53
2022/08/21 08:41:15;;;;;;;2.30;0.50;;;31.30;99.90;;;;;;5032252;28;20211;-54
2022/08/21 08:43:46;;;;;;;0.65;0.55;;;30.90;99.90;;;;;;5030011;28;20206;-53
2022/08/21 08:46:19;;;;;;;0.45;0.45;;;30.40;99.90;;;;;;5029623;28;20222;-53
2022/08/21 08:48:53;;;;;;;0.30;0.30;;;30.10;99.90;;;;;;5030905;28;20202;-53
2022/08/21 08:51:25;;;;;;;2.92;0.40;;;30.50;99.90;;;;;;5023664;28;20265;-53
2022/08/21 08:53:56;;;;;;;0.30;0.30;;;30.80;99.90;;;;;;5032566;28;20214;-53
2022/08/21 08:56:29;;;;;;;0.50;0.50;;;30.90;99.90;;;;;;5032301;28;20268;-53
2022/08/21 08:59:01;;;;;;;0.40;0.40;;;30.90;99.90;;;;;;5032574;28;20202;-53
2022/08/21 09:01:29;;;;;;;0.60;0.60;;;30.90;99.90;;;;;;5032088;28;20210;-53
2022/08/21 09:03:58;;;;;;;0.60;0.60;;;31.10;99.90;;;;;;5031637;28;20573;-53
2022/08/21 09:06:47;;;;;;;0.60;0.60;;;31.60;99.90;;;;;;5032398;28;20794;-53
2022/08/21 09:09:26;;;;;;;0.52;0.52;;;31.50;99.90;;;;;;5030042;28;20206;-54
2022/08/21 09:12:01;;;;;;;1.02;0.60;;;30.90;99.90;;;;;;5033492;28;20248;-54
2022/08/21 09:14:40;;;;;;;0.90;0.90;;;30.60;99.90;;;;;;5031732;28;20199;-54
2022/08/21 09:17:20;;;;;;;0.43;0.43;;;30.50;99.90;;;;;;5032210;28;20205;-54
2022/08/21 09:20:00;;;;;;;1.38;0.70;;;30.90;99.90;;;;;;5032387;28;20226;-54
2022/08/21 09:22:39;;;;;;;0.57;0.57;;;31.10;99.90;;;;;;5029694;28;20206;-53
2022/08/21 09:25:16;;;;;;;0.68;0.68;;;31.20;99.90;;;;;;5031804;28;20308;-53
2022/08/21 09:27:45;;;;;;;0.68;0.68;;;31.10;99.90;;;;;;5027310;28;20293;-53
2022/08/21 09:30:13;;;;;;;0.88;0.88;;;30.80;99.90;;;;;;5025362;28;20226;-53
2022/08/21 09:32:41;;;;;;;1.25;0.80;;;30.60;99.90;;;;;;5022348;28;20252;-53
2022/08/21 09:35:11;;;;;;;1.20;1.20;;;30.90;99.90;;;;;;5027180;28;20606;-53
2022/08/21 09:37:49;;;;;;;0.85;0.85;;;30.70;99.90;;;;;;5029982;28;20198;-53
2022/08/21 09:40:30;;;;;;;1.48;1.00;;;31.00;99.90;;;;;;5028994;28;20635;-54
2022/08/21 09:43:00;;;;;;;0.90;0.90;;;30.80;99.90;;;;;;5029200;28;20220;-53
2022/08/21 09:45:28;;;;;;;2.05;1.05;;;29.90;99.90;;;;;;5029815;28;20605;-53
2022/08/21 09:47:57;;;;;;;1.48;0.90;;;30.00;99.90;;;;;;5029003;28;20644;-53
2022/08/21 09:50:27;;;;;;;1.58;1.48;;;30.30;99.90;;;;;;5028715;28;20202;-53
2022/08/21 09:52:58;;;;;;;1.00;1.00;;;29.80;99.90;;;;;;5027206;28;20679;-53
2022/08/21 09:58:20;;;;;;;1.40;1.40;;;29.80;99.90;;;;;;5030002;28;20204;-53
2022/08/21 10:00:58;;;;;;;1.20;1.15;;;29.70;99.90;;;;;;5023776;28;20214;-54
2022/08/21 10:03:26;;;;;;;2.10;2.00;;;29.60;99.90;;;;;;5028707;28;20214;-53
2022/08/21 10:05:56;;;;;;;1.33;1.27;;;29.60;99.90;;;;;;5030027;28;20226;-53
2022/08/21 10:08:25;;;;;;;7.10;1.45;;;29.90;99.90;;;;;;5028451;28;20199;-53
2022/08/21 10:10:56;;;;;;;1.23;1.23;;;30.10;99.90;;;;;;5029713;28;20256;-53
2022/08/21 10:13:38;;;;;;;2.17;1.15;;;29.80;99.90;;;;;;5026018;28;20238;-53
2022/08/21 10:16:16;;;;;;;1.50;0.70;;;30.40;99.90;;;;;;5027771;28;20229;-53
2022/08/21 10:18:49;;;;;;;0.70;0.70;;;30.50;99.90;;;;;;5029797;28;20202;-54
2022/08/21 10:21:22;;;;;;;1.65;0.60;;;30.50;99.90;;;;;;5025318;28;20226;-53
2022/08/21 10:24:06;;;;;;;0.70;0.70;;;30.60;99.90;;;;;;5022880;28;20611;-53
2022/08/21 10:26:45;;;;;;;1.17;1.17;;;30.60;99.90;;;;;;5018957;28;20228;-54
2022/08/21 10:29:28;;;;;;;0.85;0.85;;;30.60;99.90;;;;;;5018435;28;20206;-53
2022/08/21 10:32:02;;;;;;;0.82;0.82;;;29.60;99.90;;;;;;5019603;28;20616;-53
2022/08/21 10:34:43;;;;;;;1.20;1.20;;;29.30;99.90;;;;;;5019464;28;20250;-53
2022/08/21 10:37:29;;;;;;;1.77;1.42;;;28.20;99.90;;;;;;5015077;28;20207;-53
2022/08/21 10:40:09;;;;;;;0.65;0.65;;;28.50;99.90;;;;;;5014381;28;20230;-53
2022/08/21 10:42:44;;;;;;;0.63;0.63;;;29.00;99.90;;;;;;5013090;28;20198;-53
2022/08/21 10:45:29;;;;;;;1.30;0.70;;;29.70;99.90;;;;;;5020412;28;20213;-54
2022/08/21 10:48:00;;;;;;;0.50;0.50;;;30.00;99.90;;;;;;5018241;28;20262;-54
2022/08/21 10:50:32;;;;;;;0.57;0.57;;;30.10;99.90;;;;;;5011893;28;20234;-53
2022/08/21 10:53:17;;;;;;;0.60;0.60;;;29.90;99.90;;;;;;5010471;28;20210;-52
2022/08/21 10:55:50;;;;;;;0.60;0.60;;;29.50;99.90;;;;;;5010492;28;20250;-53
2022/08/21 10:58:24;;;;;;;1.15;0.82;;;29.30;99.90;;;;;;5021209;28;20294;-53
2022/08/21 11:00:57;;;;;;;0.75;0.70;;;28.50;99.90;;;;;;5012341;28;20644;-53
2022/08/21 11:03:30;;;;;;;0.80;0.70;;;28.40;99.90;;;;;;5011228;28;20211;-53
2022/08/21 11:06:01;;;;;;;0.80;0.60;;;28.40;99.90;;;;;;5011368;28;20254;-53
2022/08/21 11:08:32;;;;;;;0.73;0.60;;;28.20;99.90;;;;;;5011386;28;20257;-53
2022/08/21 11:11:05;;;;;;;1.75;0.60;;;27.50;99.90;;;;;;5013567;28;20203;-53
2022/08/21 11:13:38;;;;;;;0.60;0.60;;;26.90;99.90;;;;;;5022156;28;20661;-53
2022/08/21 11:16:14;;;;;;;0.90;0.90;;;26.50;99.90;;;;;;5022125;28;20241;-53
2022/08/21 11:18:45;;;;;;;2.17;1.27;;;26.40;99.90;;;;;;5011252;28;20207;-53
2022/08/21 11:21:30;;;;;;;0.77;0.77;;;26.20;99.90;;;;;;5011021;28;20226;-53
2022/08/21 11:24:04;;;;;;;0.73;0.70;;;26.00;99.90;;;;;;5011379;28;20642;-52
2022/08/21 11:26:37;;;;;;;0.83;0.60;;;25.90;99.90;;;;;;5019818;28;20310;-53
2022/08/21 11:29:12;;;;;;;0.77;0.50;;;26.20;99.90;;;;;;5019621;28;20249;-53
2022/08/21 11:31:49;;;;;;;0.65;0.65;;;26.30;99.90;;;;;;5020101;28;20555;-53
2022/08/21 11:34:37;;;;;;;1.00;0.82;;;26.40;99.90;;;;;;5033441;28;20261;-53
2022/08/21 11:37:11;;;;;;;2.13;0.80;;;26.30;99.90;;;;;;5033871;28;20205;-53
2022/08/21 11:39:45;;;;;;;0.75;0.68;;;26.20;99.90;;;;;;5028908;28;20676;-54
2022/08/21 11:42:21;;;;;;;0.60;0.60;;;26.00;99.90;;;;;;5017025;28;20191;-53
2022/08/21 11:44:56;;;;;;;0.52;0.50;;;25.90;99.90;;;;;;5014028;28;20241;-53
2022/08/21 11:47:34;;;;;;;1.07;0.97;;;25.90;99.90;;;;;;5013701;28;20203;-53
2022/08/21 11:50:13;;;;;;;1.20;1.10;;;25.80;99.90;;;;;;5029455;28;20210;-53
2022/08/21 11:52:49;;;;;;;0.40;0.40;;;25.70;99.90;;;;;;5032898;28;20581;-53
2022/08/21 11:55:20;;;;;;;1.70;0.50;;;25.80;99.90;;;;;;5026507;28;20226;-53
2022/08/21 11:57:54;;;;;;;0.60;0.60;;;25.80;99.90;;;;;;5024346;28;20210;-53
2022/08/21 12:00:27;;;;;;;1.17;0.60;;;25.90;99.90;;;;;;5023576;28;20269;-53
2022/08/21 12:02:59;;;;;;;0.55;0.55;;;25.80;99.90;;;;;;5014558;28;20207;-53
2022/08/21 12:05:32;;;;;;;1.47;1.37;;;25.80;99.90;;;;;;5017199;28;20223;-55
2022/08/21 12:08:12;;;;;;;1.03;0.30;;;25.90;99.90;;;;;;5030039;28;20665;-53
2022/08/21 12:10:41;;;;;;;0.80;0.50;;;25.60;99.90;;;;;;5028867;28;20668;-53
2022/08/21 12:13:13;;;;;;;0.60;0.60;;;25.40;99.90;;;;;;5017936;28;20804;-52
2022/08/21 12:15:41;;;;;;;0.67;0.50;;;25.30;99.90;;;;;;5015329;28;20227;-53
2022/08/21 12:18:24;;;;;;;1.47;0.77;;;25.40;99.90;;;;;;5029074;28;20976;-53
2022/08/21 12:21:17;;;;;;;1.63;0.83;;;25.60;99.90;;;;;;5030311;28;20586;-53
2022/08/21 12:23:48;;;;;;;0.50;0.50;;;25.60;99.90;;;;;;5020859;28;20203;-53
2022/08/21 12:26:27;;;;;;;0.50;0.50;;;25.70;99.90;;;;;;5023894;28;20219;-53
2022/08/21 12:29:11;;;;;;;0.43;0.43;;;25.70;99.90;;;;;;5014575;28;20289;-53
2022/08/21 12:31:53;;;;;;;0.40;0.40;;;25.80;99.90;;;;;;5016771;28;20203;-54
2022/08/21 12:34:23;;;;;;;1.23;0.30;;;25.60;99.90;;;;;;5020184;28;20235;-53
2022/08/21 12:36:55;;;;;;;0.40;0.40;;;25.60;99.90;;;;;;5013004;28;20222;-53
2022/08/21 12:39:26;;;;;;;0.40;0.40;;;25.60;99.90;;;;;;5015837;28;20664;-53
2022/08/21 12:41:58;;;;;;;1.95;0.50;;;25.70;99.90;;;;;;5031996;28;20253;-53
2022/08/21 12:44:34;;;;;;;1.35;0.57;;;25.60;99.90;;;;;;5024152;28;20795;-53
2022/08/21 12:47:06;;;;;;;0.93;0.50;;;25.50;99.90;;;;;;5018535;28;20336;-53
2022/08/21 12:49:37;;;;;;;2.00;0.50;;;25.50;99.90;;;;;;5011975;28;20684;-53
2022/08/21 12:52:13;;;;;;;0.47;0.40;;;25.60;99.90;;;;;;5021402;28;20199;-53
2022/08/21 12:54:43;;;;;;;0.60;0.60;;;25.60;99.90;;;;;;5011824;28;20615;-52
2022/08/21 12:57:20;;;;;;;0.63;0.60;;;25.80;99.90;;;;;;5030947;28;20198;-53
2022/08/21 12:59:52;;;;;;;0.40;0.40;;;25.80;99.90;;;;;;5022298;28;20206;-53
2022/08/21 13:02:22;;;;;;;0.63;0.63;;;25.70;99.90;;;;;;5016310;28;20229;-53
2022/08/21 13:04:52;;;;;;;0.50;0.50;;;25.80;99.90;;;;;;5011810;28;21797;-53